Missouri River (Missouri), Washington (06935450)

StateMissouriLatestUnknown (77200 cfs)
RiverMissouri RiverRatingObservedEstimated
Updated2020-07-13 14:45 (54 minutes ago)Flood - The river is flooding. Obstacles can be treacherous or deadly. The river should be avoided at this stage for casual trips and definitely for the inexperienced. Trips should be attempted only with protective gear and equipment.Flood(none)(none)
Discharge77200 cfs (median: 110000 cfs)High - The river is high and potentially dangerous, especially for the young and / or inexperienced. Normal stream obstacles are sometimes difficult to navigate. Extended distances can be attempted, but canoe travel may not be advisable.High(none)(none)
Height7.28 feetGood - Conditions are ideal for a canoe or kayak. Boats typically will drag on fewer than one-quarter of riffles, if at all, and portages are unnecessary or rare. Normal float lengths can be attempted without a problem.Good(none)(none)
TrendFalling (falling over 24 hours)Low - River is low but can still be floated. Some riffles are okay but most come with significant dragging and might need a portage. Float lengths should be reduced to accommodate low flow, dragging, and portages.Low(none)(none)
USGSExternal icon USGS Site (External icon Google Maps)Poor - River is too low to float comfortably. Most or all riffles will drag or must be portaged and some obstacles (such as slick shelf rock) cause undue problems. Avoid the river at this stage for casual paddling trips.Poor(none)(none)

Trending Data

Plot Image

Trips for Missouri River (Missouri), Washington (06935450)

DateStartEndDistanceConditionDischargeHeightFishingDetails

A total of 0 rows are displayed.

Condition Descriptions

Fishing Conditions

Fish Species

Notes

Classic Trip List

The classic River Trips application is still available for use. It is updated with the new system using a data retrofit. It is no longer maintained. The original River Trips application is no longer updated (as of 1 Dec 2016) but can be checked for errors or for the condition of the data before it was converted to the new system.

Gauge Data Table

ObservationHeightDischargeMaximum
Discharge
Minimum
Discharge
Mean
Discharge
P05P10P20P25P50
(Median)
P75P80P90P95
2020-07-13 14:45 7.28 77200 245000 (2019) 96100 (2017) 155000 98500 102000 110000 230000 239000
2020-07-13 13:45 7.32 77500 245000 (2019) 96100 (2017) 155000 98500 102000 110000 230000 239000
2020-07-13 12:45 7.39 78100 245000 (2019) 96100 (2017) 155000 98500 102000 110000 230000 239000
2020-07-13 11:45 7.40 78200 245000 (2019) 96100 (2017) 155000 98500 102000 110000 230000 239000
2020-07-13 10:45 7.31 77400 245000 (2019) 96100 (2017) 155000 98500 102000 110000 230000 239000
2020-07-13 09:45 7.38 78000 245000 (2019) 96100 (2017) 155000 98500 102000 110000 230000 239000
2020-07-13 08:45 7.39 78100 245000 (2019) 96100 (2017) 155000 98500 102000 110000 230000 239000
2020-07-13 07:45 7.43 78500 245000 (2019) 96100 (2017) 155000 98500 102000 110000 230000 239000
2020-07-13 06:45 7.46 78700 245000 (2019) 96100 (2017) 155000 98500 102000 110000 230000 239000
2020-07-13 05:45 7.41 78300 245000 (2019) 96100 (2017) 155000 98500 102000 110000 230000 239000
2020-07-13 04:45 7.41 78300 245000 (2019) 96100 (2017) 155000 98500 102000 110000 230000 239000
2020-07-13 03:45 7.47 78800 245000 (2019) 96100 (2017) 155000 98500 102000 110000 230000 239000
2020-07-13 02:45 7.48 78900 245000 (2019) 96100 (2017) 155000 98500 102000 110000 230000 239000
2020-07-13 01:30 7.52 79300 245000 (2019) 96100 (2017) 155000 98500 102000 110000 230000 239000
2020-07-13 00:30 7.51 79200 245000 (2019) 96100 (2017) 155000 98500 102000 110000 230000 239000
2020-07-12 23:45 7.57 79700 252000 (2019) 97100 (2017) 160000 98900 102000 113000 241000 248000
2020-07-12 22:30 7.55 79500 252000 (2019) 97100 (2017) 160000 98900 102000 113000 241000 248000
2020-07-12 21:45 7.51 79200 252000 (2019) 97100 (2017) 160000 98900 102000 113000 241000 248000
2020-07-12 20:45 7.56 79600 252000 (2019) 97100 (2017) 160000 98900 102000 113000 241000 248000
2020-07-12 19:45 7.67 80600 252000 (2019) 97100 (2017) 160000 98900 102000 113000 241000 248000
2020-07-12 18:45 7.61 80100 252000 (2019) 97100 (2017) 160000 98900 102000 113000 241000 248000
2020-07-12 17:45 7.73 81100 252000 (2019) 97100 (2017) 160000 98900 102000 113000 241000 248000
2020-07-12 16:45 7.69 80800 252000 (2019) 97100 (2017) 160000 98900 102000 113000 241000 248000
2020-07-12 15:45 7.70 80900 252000 (2019) 97100 (2017) 160000 98900 102000 113000 241000 248000
2020-07-12 14:45 7.73 81100 252000 (2019) 97100 (2017) 160000 98900 102000 113000 241000 248000
2020-07-12 13:45 7.74 81200 252000 (2019) 97100 (2017) 160000 98900 102000 113000 241000 248000
2020-07-12 12:45 7.71 81000 252000 (2019) 97100 (2017) 160000 98900 102000 113000 241000 248000
2020-07-12 11:45 7.77 81500 252000 (2019) 97100 (2017) 160000 98900 102000 113000 241000 248000
2020-07-12 10:45 7.81 81900 252000 (2019) 97100 (2017) 160000 98900 102000 113000 241000 248000
2020-07-12 09:45 7.82 82000 252000 (2019) 97100 (2017) 160000 98900 102000 113000 241000 248000
2020-07-12 08:45 7.85 82200 252000 (2019) 97100 (2017) 160000 98900 102000 113000 241000 248000
2020-07-12 07:45 7.91 82800 252000 (2019) 97100 (2017) 160000 98900 102000 113000 241000 248000
2020-07-12 06:45 7.89 82600 252000 (2019) 97100 (2017) 160000 98900 102000 113000 241000 248000
2020-07-12 05:45 7.97 83300 252000 (2019) 97100 (2017) 160000 98900 102000 113000 241000 248000
2020-07-12 04:45 8.02 83800 252000 (2019) 97100 (2017) 160000 98900 102000 113000 241000 248000
2020-07-12 03:45 8.04 84000 252000 (2019) 97100 (2017) 160000 98900 102000 113000 241000 248000
2020-07-12 02:45 8.06 84100 252000 (2019) 97100 (2017) 160000 98900 102000 113000 241000 248000
2020-07-12 01:45 8.08 84300 252000 (2019) 97100 (2017) 160000 98900 102000 113000 241000 248000
2020-07-12 00:45 8.17 85200 252000 (2019) 97100 (2017) 160000 98900 102000 113000 241000 248000
2020-07-11 23:45 8.20 85500 286000 (2015) 94700 (2017) 172000 97200 101000 118000 271000 280000
2020-07-11 22:45 8.21 85500 286000 (2015) 94700 (2017) 172000 97200 101000 118000 271000 280000
2020-07-11 21:45 8.21 85500 286000 (2015) 94700 (2017) 172000 97200 101000 118000 271000 280000
2020-07-11 20:45 8.31 86500 286000 (2015) 94700 (2017) 172000 97200 101000 118000 271000 280000
2020-07-11 19:45 8.32 86600 286000 (2015) 94700 (2017) 172000 97200 101000 118000 271000 280000
2020-07-11 18:45 8.34 86800 286000 (2015) 94700 (2017) 172000 97200 101000 118000 271000 280000
2020-07-11 17:45 8.40 87300 286000 (2015) 94700 (2017) 172000 97200 101000 118000 271000 280000
2020-07-11 16:45 8.45 87800 286000 (2015) 94700 (2017) 172000 97200 101000 118000 271000 280000
2020-07-11 15:45 8.53 88600 286000 (2015) 94700 (2017) 172000 97200 101000 118000 271000 280000
2020-07-11 14:45 8.48 88100 286000 (2015) 94700 (2017) 172000 97200 101000 118000 271000 280000
2020-07-11 13:45 8.56 88900 286000 (2015) 94700 (2017) 172000 97200 101000 118000 271000 280000
2020-07-11 12:45 8.51 88400 286000 (2015) 94700 (2017) 172000 97200 101000 118000 271000 280000
2020-07-11 11:45 8.54 88700 286000 (2015) 94700 (2017) 172000 97200 101000 118000 271000 280000
2020-07-11 10:45 8.56 88900 286000 (2015) 94700 (2017) 172000 97200 101000 118000 271000 280000
2020-07-11 09:45 8.56 88900 286000 (2015) 94700 (2017) 172000 97200 101000 118000 271000 280000
2020-07-11 08:45 8.58 89100 286000 (2015) 94700 (2017) 172000 97200 101000 118000 271000 280000
2020-07-11 07:45 8.62 89500 286000 (2015) 94700 (2017) 172000 97200 101000 118000 271000 280000
2020-07-11 06:45 8.59 89200 286000 (2015) 94700 (2017) 172000 97200 101000 118000 271000 280000
2020-07-11 05:45 8.56 88900 286000 (2015) 94700 (2017) 172000 97200 101000 118000 271000 280000
2020-07-11 04:45 8.53 88600 286000 (2015) 94700 (2017) 172000 97200 101000 118000 271000 280000
2020-07-11 03:45 8.55 88800 286000 (2015) 94700 (2017) 172000 97200 101000 118000 271000 280000
2020-07-11 02:45 8.58 89100 286000 (2015) 94700 (2017) 172000 97200 101000 118000 271000 280000
2020-07-11 01:45 8.56 88900 286000 (2015) 94700 (2017) 172000 97200 101000 118000 271000 280000
2020-07-11 00:45 8.66 89800 286000 (2015) 94700 (2017) 172000 97200 101000 118000 271000 280000
2020-07-10 23:45 8.54 88700 322000 (2015) 96200 (2017) 186000 102000 110000 131000 290000 309000
2020-07-10 22:45 8.62 89500 322000 (2015) 96200 (2017) 186000 102000 110000 131000 290000 309000
2020-07-10 21:45 8.66 89800 322000 (2015) 96200 (2017) 186000 102000 110000 131000 290000 309000
2020-07-10 20:45 8.66 89800 322000 (2015) 96200 (2017) 186000 102000 110000 131000 290000 309000
2020-07-10 19:45 8.72 90400 322000 (2015) 96200 (2017) 186000 102000 110000 131000 290000 309000
2020-07-10 18:45 8.72 90400 322000 (2015) 96200 (2017) 186000 102000 110000 131000 290000 309000
2020-07-10 17:45 8.72 90400 322000 (2015) 96200 (2017) 186000 102000 110000 131000 290000 309000
2020-07-10 16:45 8.74 90600 322000 (2015) 96200 (2017) 186000 102000 110000 131000 290000 309000
2020-07-10 15:45 8.76 90800 322000 (2015) 96200 (2017) 186000 102000 110000 131000 290000 309000
2020-07-10 14:45 8.81 91300 322000 (2015) 96200 (2017) 186000 102000 110000 131000 290000 309000
2020-07-10 13:45 8.78 91000 322000 (2015) 96200 (2017) 186000 102000 110000 131000 290000 309000
2020-07-10 12:45 8.82 91400 322000 (2015) 96200 (2017) 186000 102000 110000 131000 290000 309000
2020-07-10 11:45 8.81 91300 322000 (2015) 96200 (2017) 186000 102000 110000 131000 290000 309000
2020-07-10 10:30 8.90 92200 322000 (2015) 96200 (2017) 186000 102000 110000 131000 290000 309000
2020-07-10 09:30 8.85 91700 322000 (2015) 96200 (2017) 186000 102000 110000 131000 290000 309000
2020-07-10 08:45 8.79 91100 322000 (2015) 96200 (2017) 186000 102000 110000 131000 290000 309000
2020-07-10 07:45 8.86 91800 322000 (2015) 96200 (2017) 186000 102000 110000 131000 290000 309000
2020-07-10 06:45 8.87 91900 322000 (2015) 96200 (2017) 186000 102000 110000 131000 290000 309000
2020-07-10 05:45 8.77 90900 322000 (2015) 96200 (2017) 186000 102000 110000 131000 290000 309000
2020-07-10 04:45 8.80 91200 322000 (2015) 96200 (2017) 186000 102000 110000 131000 290000 309000
2020-07-10 03:45 8.76 90800 322000 (2015) 96200 (2017) 186000 102000 110000 131000 290000 309000
2020-07-10 02:30 8.83 91500 322000 (2015) 96200 (2017) 186000 102000 110000 131000 290000 309000
2020-07-10 01:45 8.85 91700 322000 (2015) 96200 (2017) 186000 102000 110000 131000 290000 309000
2020-07-10 00:15 8.89 92100 322000 (2015) 96200 (2017) 186000 102000 110000 131000 290000 309000
2020-07-09 23:45 8.95 92700 272000 (2015) 114000 (2017) 187000 117000 122000 156000 268000 270000
2020-07-09 22:45 8.87 91900 272000 (2015) 114000 (2017) 187000 117000 122000 156000 268000 270000
2020-07-09 21:45 9.05 93700 272000 (2015) 114000 (2017) 187000 117000 122000 156000 268000 270000
2020-07-09 20:45 8.98 93000 272000 (2015) 114000 (2017) 187000 117000 122000 156000 268000 270000
2020-07-09 19:30 9.14 94600 272000 (2015) 114000 (2017) 187000 117000 122000 156000 268000 270000
2020-07-09 18:45 9.03 93500 272000 (2015) 114000 (2017) 187000 117000 122000 156000 268000 270000
2020-07-09 17:45 9.08 94000 272000 (2015) 114000 (2017) 187000 117000 122000 156000 268000 270000
2020-07-09 16:45 9.12 94400 272000 (2015) 114000 (2017) 187000 117000 122000 156000 268000 270000
2020-07-09 15:30 9.13 94500 272000 (2015) 114000 (2017) 187000 117000 122000 156000 268000 270000
2020-07-09 14:45 9.14 94600 272000 (2015) 114000 (2017) 187000 117000 122000 156000 268000 270000
2020-07-09 13:45 9.23 95500 272000 (2015) 114000 (2017) 187000 117000 122000 156000 268000 270000
2020-07-09 12:45 9.18 95000 272000 (2015) 114000 (2017) 187000 117000 122000 156000 268000 270000
2020-07-09 11:30 9.51 98400 272000 (2015) 114000 (2017) 187000 117000 122000 156000 268000 270000
2020-07-09 10:15 9.39 97200 272000 (2015) 114000 (2017) 187000 117000 122000 156000 268000 270000
2020-07-09 09:30 9.48 98100 272000 (2015) 114000 (2017) 187000 117000 122000 156000 268000 270000
2020-07-09 08:45 9.40 97300 272000 (2015) 114000 (2017) 187000 117000 122000 156000 268000 270000
2020-07-09 07:30 9.63 99700 272000 (2015) 114000 (2017) 187000 117000 122000 156000 268000 270000
2020-07-09 06:15 9.61 99400 272000 (2015) 114000 (2017) 187000 117000 122000 156000 268000 270000
2020-07-09 05:45 9.77 101000 272000 (2015) 114000 (2017) 187000 117000 122000 156000 268000 270000
2020-07-09 04:45 9.65 99900 272000 (2015) 114000 (2017) 187000 117000 122000 156000 268000 270000
2020-07-09 03:45 9.79 101000 272000 (2015) 114000 (2017) 187000 117000 122000 156000 268000 270000
2020-07-09 02:45 9.63 99700 272000 (2015) 114000 (2017) 187000 117000 122000 156000 268000 270000
2020-07-09 01:45 9.80 101000 272000 (2015) 114000 (2017) 187000 117000 122000 156000 268000 270000
2020-07-09 00:30 9.75 101000 272000 (2015) 114000 (2017) 187000 117000 122000 156000 268000 270000
2020-07-08 23:45 9.76 101000 270000 (2019) 131000 (2017) 177000 132000 133000 157000 231000 254000
2020-07-08 22:30 9.85 102000 270000 (2019) 131000 (2017) 177000 132000 133000 157000 231000 254000
2020-07-08 21:30 9.90 103000 270000 (2019) 131000 (2017) 177000 132000 133000 157000 231000 254000
2020-07-08 20:30 9.84 102000 270000 (2019) 131000 (2017) 177000 132000 133000 157000 231000 254000
2020-07-08 19:45 9.92 103000 270000 (2019) 131000 (2017) 177000 132000 133000 157000 231000 254000
2020-07-08 18:30 9.94 103000 270000 (2019) 131000 (2017) 177000 132000 133000 157000 231000 254000
2020-07-08 17:30 10.07 104000 270000 (2019) 131000 (2017) 177000 132000 133000 157000 231000 254000
2020-07-08 16:45 10.13 105000 270000 (2019) 131000 (2017) 177000 132000 133000 157000 231000 254000
2020-07-08 15:45 10.12 105000 270000 (2019) 131000 (2017) 177000 132000 133000 157000 231000 254000
2020-07-08 14:45 10.23 106000 270000 (2019) 131000 (2017) 177000 132000 133000 157000 231000 254000
2020-07-08 13:45 10.36 108000 270000 (2019) 131000 (2017) 177000 132000 133000 157000 231000 254000
2020-07-08 12:45 10.29 107000 270000 (2019) 131000 (2017) 177000 132000 133000 157000 231000 254000
2020-07-08 11:45 10.23 106000 270000 (2019) 131000 (2017) 177000 132000 133000 157000 231000 254000
2020-07-08 10:45 10.26 106000 270000 (2019) 131000 (2017) 177000 132000 133000 157000 231000 254000
2020-07-08 09:45 10.44 108000 270000 (2019) 131000 (2017) 177000 132000 133000 157000 231000 254000
2020-07-08 08:15 10.44 108000 270000 (2019) 131000 (2017) 177000 132000 133000 157000 231000 254000
2020-07-08 07:45 10.41 108000 270000 (2019) 131000 (2017) 177000 132000 133000 157000 231000 254000
2020-07-08 06:45 10.41 108000 270000 (2019) 131000 (2017) 177000 132000 133000 157000 231000 254000
2020-07-08 05:45 10.41 108000 270000 (2019) 131000 (2017) 177000 132000 133000 157000 231000 254000
2020-07-08 04:45 10.38 108000 270000 (2019) 131000 (2017) 177000 132000 133000 157000 231000 254000
2020-07-08 03:45 10.37 108000 270000 (2019) 131000 (2017) 177000 132000 133000 157000 231000 254000
2020-07-08 02:45 10.34 107000 270000 (2019) 131000 (2017) 177000 132000 133000 157000 231000 254000
2020-07-08 01:45 10.29 107000 270000 (2019) 131000 (2017) 177000 132000 133000 157000 231000 254000
2020-07-08 00:45 10.31 107000 270000 (2019) 131000 (2017) 177000 132000 133000 157000 231000 254000
2020-07-07 23:45 10.16 105000 277000 (2019) 137000 (2018) 181000 138000 139000 157000 234000 260000
2020-07-07 22:45 10.16 105000 277000 (2019) 137000 (2018) 181000 138000 139000 157000 234000 260000
2020-07-07 21:45 10.08 104000 277000 (2019) 137000 (2018) 181000 138000 139000 157000 234000 260000
2020-07-07 20:30 10.10 105000 277000 (2019) 137000 (2018) 181000 138000 139000 157000 234000 260000
2020-07-07 19:45 10.01 104000 277000 (2019) 137000 (2018) 181000 138000 139000 157000 234000 260000
2020-07-07 18:45 9.90 103000 277000 (2019) 137000 (2018) 181000 138000 139000 157000 234000 260000
2020-07-07 17:45 9.92 103000 277000 (2019) 137000 (2018) 181000 138000 139000 157000 234000 260000
2020-07-07 16:45 10.01 104000 277000 (2019) 137000 (2018) 181000 138000 139000 157000 234000 260000
2020-07-07 15:45 9.97 103000 277000 (2019) 137000 (2018) 181000 138000 139000 157000 234000 260000
2020-07-07 13:45 9.97 103000 277000 (2019) 137000 (2018) 181000 138000 139000 157000 234000 260000
2020-07-07 12:45 10.04 104000 277000 (2019) 137000 (2018) 181000 138000 139000 157000 234000 260000
2020-07-07 11:45 10.01 104000 277000 (2019) 137000 (2018) 181000 138000 139000 157000 234000 260000
2020-07-07 10:45 10.02 104000 277000 (2019) 137000 (2018) 181000 138000 139000 157000 234000 260000
2020-07-07 09:45 10.12 105000 277000 (2019) 137000 (2018) 181000 138000 139000 157000 234000 260000
2020-07-07 08:45 10.09 105000 277000 (2019) 137000 (2018) 181000 138000 139000 157000 234000 260000
2020-07-07 07:30 10.25 106000 277000 (2019) 137000 (2018) 181000 138000 139000 157000 234000 260000
2020-07-07 06:45 10.21 106000 277000 (2019) 137000 (2018) 181000 138000 139000 157000 234000 260000
2020-07-07 05:45 10.25 106000 277000 (2019) 137000 (2018) 181000 138000 139000 157000 234000 260000
2020-07-07 04:45 10.28 107000 277000 (2019) 137000 (2018) 181000 138000 139000 157000 234000 260000
2020-07-07 03:45 10.24 106000 277000 (2019) 137000 (2018) 181000 138000 139000 157000 234000 260000
2020-07-07 02:45 10.25 106000 277000 (2019) 137000 (2018) 181000 138000 139000 157000 234000 260000
2020-07-07 01:30 10.34 107000 277000 (2019) 137000 (2018) 181000 138000 139000 157000 234000 260000
2020-07-07 00:45 10.42 108000 277000 (2019) 137000 (2018) 181000 138000 139000 157000 234000 260000
2020-07-06 23:45 10.47 109000 287000 (2019) 138000 (2018) 192000 142000 147000 164000 251000 273000
2020-07-06 22:45 10.47 109000 287000 (2019) 138000 (2018) 192000 142000 147000 164000 251000 273000
2020-07-06 21:30 10.54 110000 287000 (2019) 138000 (2018) 192000 142000 147000 164000 251000 273000
2020-07-06 20:45 10.63 111000 287000 (2019) 138000 (2018) 192000 142000 147000 164000 251000 273000
2020-07-06 19:45 10.67 111000 287000 (2019) 138000 (2018) 192000 142000 147000 164000 251000 273000
2020-07-06 18:45 10.56 110000 287000 (2019) 138000 (2018) 192000 142000 147000 164000 251000 273000
2020-07-06 17:15 10.60 110000 287000 (2019) 138000 (2018) 192000 142000 147000 164000 251000 273000
2020-07-06 16:45 10.66 111000 287000 (2019) 138000 (2018) 192000 142000 147000 164000 251000 273000
2020-07-06 15:45 10.79 112000 287000 (2019) 138000 (2018) 192000 142000 147000 164000 251000 273000
2020-07-06 14:45 10.67 111000 287000 (2019) 138000 (2018) 192000 142000 147000 164000 251000 273000
2020-07-06 13:45 10.76 112000 287000 (2019) 138000 (2018) 192000 142000 147000 164000 251000 273000
2020-07-06 12:30 10.87 113000 287000 (2019) 138000 (2018) 192000 142000 147000 164000 251000 273000
2020-07-06 11:45 10.78 112000 287000 (2019) 138000 (2018) 192000 142000 147000 164000 251000 273000
2020-07-06 10:45 10.85 113000 287000 (2019) 138000 (2018) 192000 142000 147000 164000 251000 273000
2020-07-06 09:45 10.91 114000 287000 (2019) 138000 (2018) 192000 142000 147000 164000 251000 273000
2020-07-06 08:15 11.08 116000 287000 (2019) 138000 (2018) 192000 142000 147000 164000 251000 273000
2020-07-06 07:30 11.01 115000 287000 (2019) 138000 (2018) 192000 142000 147000 164000 251000 273000
2020-07-06 06:30 11.07 116000 287000 (2019) 138000 (2018) 192000 142000 147000 164000 251000 273000
2020-07-06 05:45 11.05 115000 287000 (2019) 138000 (2018) 192000 142000 147000 164000 251000 273000
2020-07-06 04:30 11.07 116000 287000 (2019) 138000 (2018) 192000 142000 147000 164000 251000 273000
2020-07-06 03:30 11.05 115000 287000 (2019) 138000 (2018) 192000 142000 147000 164000 251000 273000
2020-07-06 02:45 11.11 116000 287000 (2019) 138000 (2018) 192000 142000 147000 164000 251000 273000
2020-07-06 01:15 11.29 118000 287000 (2019) 138000 (2018) 192000 142000 147000 164000 251000 273000
2020-07-06 00:45 11.15 117000 287000 (2019) 138000 (2018) 192000 142000 147000 164000 251000 273000

A total of 182 rows are displayed for years 2015 through 2019.